Time;durP1;ratioP1;P1;durP2;ratioP2;P2;SDS_P1;SDS_P2;PMS_P1;PMS_P2;Temp;Humidity;BMP_temperature;BMP_pressure;BME280_temperature;BME280_humidity;BME280_pressure;Samples;Min_cycle;Max_cycle;Signal;HPM_P1;HPM_P2
2021/12/01 00:00:45;;;;;;;16.55;8.85;;;;;;;-1.20;88.32;97351.55;1660994;84;20892;-67
2021/12/01 00:03:11;;;;;;;13.18;7.90;;;;;;;-1.19;88.02;97351.00;1653863;85;21625;-67
2021/12/01 00:05:39;;;;;;;16.32;8.25;;;;;;;-1.20;87.78;97351.55;1652339;85;20964;-68
2021/12/01 00:08:05;;;;;;;19.25;8.98;;;;;;;-1.18;87.48;97348.55;1647599;85;21069;-69
2021/12/01 00:10:34;;;;;;;18.65;8.50;;;;;;;-1.15;87.39;97350.63;1649812;85;21816;-70
2021/12/01 00:13:07;;;;;;;14.05;7.75;;;;;;;-1.15;86.78;97356.81;1649349;85;21468;-71
2021/12/01 00:15:36;;;;;;;13.18;7.12;;;;;;;-1.13;86.59;97347.10;1652887;85;21595;-70
2021/12/01 00:18:03;;;;;;;13.83;7.37;;;;;;;-1.12;85.89;97340.63;1647996;85;21071;-69
2021/12/01 00:20:30;;;;;;;13.65;7.37;;;;;;;-1.12;85.81;97345.47;1645665;85;21106;-69
2021/12/01 00:22:58;;;;;;;16.02;8.35;;;;;;;-1.10;85.42;97342.48;1633059;85;21904;-70
2021/12/01 00:25:25;;;;;;;15.95;7.78;;;;;;;-1.10;85.61;97344.62;1642937;85;21024;-69
2021/12/01 00:27:53;;;;;;;11.00;6.87;;;;;;;-1.08;85.72;97342.98;1628878;86;20981;-68
2021/12/01 00:30:20;;;;;;;14.03;7.50;;;;;;;-1.07;85.10;97344.58;1628321;86;21052;-68
2021/12/01 00:32:47;;;;;;;13.50;7.72;;;;;;;-1.06;84.88;97344.29;1629439;86;21110;-69
2021/12/01 00:35:14;;;;;;;14.00;7.42;;;;;;;-1.03;84.80;97334.83;1634982;85;21150;-67
2021/12/01 00:37:42;;;;;;;13.90;6.70;;;;;;;-1.00;84.57;97343.66;1634061;86;21187;-70
2021/12/01 00:40:10;;;;;;;12.40;7.33;;;;;;;-0.98;83.74;97349.55;1622291;87;21508;-69
2021/12/01 00:42:38;;;;;;;14.87;6.60;;;;;;;-0.95;84.21;97341.44;1631054;86;21152;-69
2021/12/01 00:45:17;;;;;;;11.38;6.37;;;;;;;-0.97;84.78;97341.73;1631160;85;21051;-70
2021/12/01 00:47:45;;;;;;;30.02;7.67;;;;;;;-1.00;85.89;97331.55;1627527;87;21216;-68
2021/12/01 00:50:14;;;;;;;14.78;7.45;;;;;;;-1.05;87.06;97324.89;1653710;85;20941;-68
2021/12/01 00:52:43;;;;;;;12.37;7.25;;;;;;;-1.13;88.44;97326.91;1624408;86;21216;-68
2021/12/01 00:55:09;;;;;;;15.68;8.15;;;;;;;-1.21;89.70;97317.64;1626287;86;21001;-68
2021/12/01 00:57:36;;;;;;;16.95;8.45;;;;;;;-1.29;90.84;97316.16;1619759;86;21005;-68
2021/12/01 01:00:06;;;;;;;14.45;8.23;;;;;;;-1.34;91.35;97310.30;1637478;86;21192;-68
2021/12/01 01:02:32;;;;;;;13.80;8.40;;;;;;;-1.39;92.09;97317.11;1659178;83;21626;-68
2021/12/01 01:04:59;;;;;;;13.68;8.33;;;;;;;-1.43;92.85;97314.20;1659267;84;21642;-68
2021/12/01 01:07:26;;;;;;;15.98;8.70;;;;;;;-1.49;93.79;97307.84;1656678;84;21840;-68
2021/12/01 01:09:53;;;;;;;19.02;9.35;;;;;;;-1.53;94.99;97308.97;1638627;85;21081;-68
2021/12/01 01:17:57;;;;;;;17.92;9.45;;;;;;;-1.70;98.39;97291.19;1608195;86;21046;-69
2021/12/01 01:20:16;;;;;;;20.20;10.40;;;;;;;-1.78;98.84;97289.98;1630858;86;20985;-68
2021/12/01 01:22:44;;;;;;;18.73;9.98;;;;;;;-1.80;99.89;97292.16;1622826;86;20902;-68
2021/12/01 01:25:11;;;;;;;17.07;9.65;;;;;;;-1.84;100.00;97282.28;1643661;86;21594;-68
2021/12/01 01:27:39;;;;;;;20.52;10.20;;;;;;;-1.87;100.00;97281.52;1637350;85;21508;-68
2021/12/01 01:30:07;;;;;;;16.55;9.15;;;;;;;-1.90;100.00;97276.71;1631045;86;21058;-68
2021/12/01 01:32:34;;;;;;;19.23;10.35;;;;;;;-1.91;100.00;97260.33;1630636;86;21080;-68
2021/12/01 01:35:00;;;;;;;19.17;10.45;;;;;;;-1.93;100.00;97255.78;1615212;88;21190;-69
2021/12/01 01:37:27;;;;;;;19.92;10.08;;;;;;;-1.94;100.00;97252.84;1606036;87;21924;-69
2021/12/01 01:39:54;;;;;;;20.25;10.38;;;;;;;-1.94;100.00;97244.77;1608011;87;21118;-68
2021/12/01 01:42:20;;;;;;;18.75;10.75;;;;;;;-1.94;100.00;97252.84;1657007;84;21134;-68
2021/12/01 01:44:48;;;;;;;21.97;11.38;;;;;;;-1.95;100.00;97244.52;1638831;85;21140;-67
2021/12/01 01:47:14;;;;;;;18.07;10.50;;;;;;;-1.95;100.00;97239.14;1627234;86;21040;-67
2021/12/01 01:49:49;;;;;;;19.92;10.58;;;;;;;-1.95;100.00;97234.56;1627790;86;21127;-67
2021/12/01 01:52:09;;;;;;;21.50;10.50;;;;;;;-1.95;100.00;97230.53;1632130;86;21059;-69
2021/12/01 01:54:35;;;;;;;21.10;10.40;;;;;;;-1.95;100.00;97228.38;1623542;86;21120;-69
2021/12/01 01:57:02;;;;;;;19.87;10.13;;;;;;;-1.94;100.00;97226.74;1632536;86;21077;-69
2021/12/01 01:59:29;;;;;;;17.32;10.13;;;;;;;-1.92;100.00;97222.42;1648333;86;21499;-69
2021/12/01 02:01:57;;;;;;;18.37;9.93;;;;;;;-1.92;100.00;97218.39;1624082;87;21270;-68
2021/12/01 02:04:26;;;;;;;19.12;10.08;;;;;;;-1.91;100.00;97227.52;1627748;86;21631;-69
2021/12/01 02:06:52;;;;;;;19.62;10.48;;;;;;;-1.90;100.00;97214.32;1633365;86;21003;-69
2021/12/01 02:09:22;;;;;;;21.00;10.45;;;;;;;-1.90;100.00;97217.01;1625583;86;21147;-69
2021/12/01 02:11:52;;;;;;;16.00;9.33;;;;;;;-1.89;100.00;97210.53;1630182;86;21063;-68
2021/12/01 02:14:18;;;;;;;17.75;10.18;;;;;;;-1.90;100.00;97210.28;1631184;85;21215;-68
2021/12/01 02:16:45;;;;;;;17.90;10.00;;;;;;;-1.88;100.00;97207.30;1646632;85;21028;-69
2021/12/01 02:19:12;;;;;;;18.85;10.90;;;;;;;-1.86;100.00;97203.78;1655132;84;21179;-69
2021/12/01 02:21:39;;;;;;;22.32;9.83;;;;;;;-1.86;100.00;97197.85;1654575;84;21165;-68
2021/12/01 02:24:11;;;;;;;17.80;9.93;;;;;;;-1.85;100.00;97213.45;1666987;84;21027;-69
2021/12/01 02:26:42;;;;;;;16.42;9.83;;;;;;;-1.83;100.00;97208.02;1658527;84;21867;-69
2021/12/01 02:29:10;;;;;;;16.77;9.93;;;;;;;-1.80;100.00;97210.68;1652800;84;21560;-69
2021/12/01 02:31:38;;;;;;;16.30;9.60;;;;;;;-1.79;100.00;97208.24;1654372;84;21314;-69
2021/12/01 02:34:11;;;;;;;15.85;9.85;;;;;;;-1.77;100.00;97206.06;1657386;84;20993;-69
2021/12/01 02:36:38;;;;;;;16.25;9.88;;;;;;;-1.75;100.00;97203.33;1642976;84;21552;-68
2021/12/01 02:39:08;;;;;;;18.95;9.78;;;;;;;-1.73;100.00;97209.19;1656902;84;21436;-68
2021/12/01 02:41:35;;;;;;;17.87;10.05;;;;;;;-1.71;100.00;97204.86;1665623;84;21116;-69
2021/12/01 02:44:03;;;;;;;18.98;9.88;;;;;;;-1.67;100.00;97208.56;1657985;84;21072;-69
2021/12/01 02:46:29;;;;;;;21.27;10.48;;;;;;;-1.67;100.00;97200.48;1657057;84;21037;-69
2021/12/01 02:48:56;;;;;;;16.05;10.15;;;;;;;-1.67;100.00;97193.77;1654877;84;21558;-69
2021/12/01 02:51:26;;;;;;;17.98;10.48;;;;;;;-1.66;100.00;97203.44;1658610;84;21812;-69
2021/12/01 02:53:52;;;;;;;16.70;10.03;;;;;;;-1.67;100.00;97199.14;1662480;85;20965;-69
2021/12/01 02:56:21;;;;;;;16.60;9.85;;;;;;;-1.67;100.00;97198.59;1653671;85;21567;-69
2021/12/01 02:58:49;;;;;;;17.45;9.50;;;;;;;-1.66;100.00;97191.33;1631749;85;20993;-69
2021/12/01 03:01:21;;;;;;;16.40;10.08;;;;;;;-1.65;100.00;97191.58;1627952;85;21147;-69
2021/12/01 03:03:48;;;;;;;16.48;9.73;;;;;;;-1.64;100.00;97189.69;1627673;86;21173;-69
2021/12/01 03:06:16;;;;;;;20.32;10.53;;;;;;;-1.64;100.00;97185.11;1645955;86;21611;-69
2021/12/01 03:08:43;;;;;;;17.45;9.90;;;;;;;-1.64;100.00;97189.14;1646459;85;21520;-68
2021/12/01 03:11:09;;;;;;;20.65;10.00;;;;;;;-1.63;100.00;97190.74;1629068;86;21068;-69
2021/12/01 03:13:36;;;;;;;16.32;10.28;;;;;;;-1.59;100.00;97189.61;1655722;85;20954;-68
2021/12/01 03:16:03;;;;;;;16.02;9.43;;;;;;;-1.58;100.00;97187.97;1663333;85;21204;-68
2021/12/01 03:18:31;;;;;;;15.13;9.13;;;;;;;-1.55;100.00;97190.62;1652560;85;21057;-68
2021/12/01 03:20:58;;;;;;;16.25;9.13;;;;;;;-1.55;100.00;97187.38;1668958;85;20966;-68
2021/12/01 03:23:25;;;;;;;14.23;8.60;;;;;;;-1.51;100.00;97178.97;1659286;84;21022;-69
2021/12/01 03:25:52;;;;;;;15.75;9.08;;;;;;;-1.49;100.00;97186.20;1655690;84;20963;-70
2021/12/01 03:28:19;;;;;;;16.00;8.88;;;;;;;-1.47;100.00;97181.87;1654445;85;21148;-68
2021/12/01 03:30:46;;;;;;;16.37;10.15;;;;;;;-1.46;100.00;97181.58;1657271;85;21010;-68
2021/12/01 03:33:18;;;;;;;16.00;9.23;;;;;;;-1.43;100.00;97182.88;1661546;84;20990;-69
2021/12/01 03:35:48;;;;;;;14.87;9.50;;;;;;;-1.43;100.00;97186.38;1660153;85;20965;-69
2021/12/01 03:38:16;;;;;;;13.32;8.08;;;;;;;-1.42;100.00;97183.13;1654326;85;21030;-69
2021/12/01 03:40:43;;;;;;;20.75;10.80;;;;;;;-1.41;100.00;97186.08;1655252;85;21128;-69
2021/12/01 03:43:09;;;;;;;15.53;9.18;;;;;;;-1.40;100.00;97181.74;1654011;85;21662;-69
2021/12/01 03:45:36;;;;;;;16.70;9.28;;;;;;;-1.38;100.00;97192.22;1655796;85;21164;-69
2021/12/01 03:48:04;;;;;;;13.93;8.18;;;;;;;-1.37;100.00;97186.53;1655164;84;37996;-70
2021/12/01 03:50:31;;;;;;;14.47;8.50;;;;;;;-1.37;100.00;97187.08;1656669;85;21096;-68
2021/12/01 03:52:58;;;;;;;13.22;8.58;;;;;;;-1.37;100.00;97185.19;1663834;84;21168;-69
2021/12/01 03:55:24;;;;;;;14.58;8.83;;;;;;;-1.34;100.00;97182.45;1656628;85;21014;-68
2021/12/01 03:57:51;;;;;;;12.75;7.78;;;;;;;-1.33;100.00;97186.74;1645475;85;21140;-68
2021/12/01 04:00:17;;;;;;;18.65;9.80;;;;;;;-1.31;100.00;97182.41;1642937;86;21047;-68
2021/12/01 04:02:46;;;;;;;14.45;8.18;;;;;;;-1.30;100.00;97187.50;1663893;84;21514;-68
2021/12/01 04:05:12;;;;;;;13.98;8.28;;;;;;;-1.29;100.00;97182.36;1656669;84;21120;-68
2021/12/01 04:07:39;;;;;;;11.38;7.42;;;;;;;-1.28;100.00;97183.96;1654909;84;21038;-68
2021/12/01 04:10:11;;;;;;;15.45;7.83;;;;;;;-1.27;100.00;97184.22;1660892;84;21589;-68
2021/12/01 04:12:41;;;;;;;13.53;8.35;;;;;;;-1.26;100.00;97187.70;1657126;85;21073;-68
2021/12/01 04:15:10;;;;;;;19.90;10.15;;;;;;;-1.25;100.00;97179.88;1655042;85;21151;-68
2021/12/01 04:17:38;;;;;;;18.10;9.85;;;;;;;-1.23;100.00;97185.22;1668005;85;21497;-68
2021/12/01 04:20:07;;;;;;;14.80;8.35;;;;;;;-1.22;100.00;97178.73;1665527;84;21098;-67
2021/12/01 04:22:34;;;;;;;16.87;9.30;;;;;;;-1.21;100.00;97185.72;1660205;84;21096;-68
2021/12/01 04:25:01;;;;;;;14.75;8.80;;;;;;;-1.18;100.00;97187.82;1655054;85;20997;-67
2021/12/01 04:27:27;;;;;;;13.22;8.08;;;;;;;-1.15;100.00;97189.89;1656495;84;21084;-68
2021/12/01 04:29:54;;;;;;;12.50;8.20;;;;;;;-1.12;100.00;97188.50;1657641;85;21175;-68
2021/12/01 04:32:20;;;;;;;13.08;7.65;;;;;;;-1.10;100.00;97182.27;1660485;85;21034;-69
2021/12/01 04:34:47;;;;;;;13.30;8.30;;;;;;;-1.07;100.00;97191.09;1653576;85;21508;-68
2021/12/01 04:37:14;;;;;;;12.78;7.50;;;;;;;-1.05;100.00;97191.05;1670880;84;21477;-68
2021/12/01 04:39:41;;;;;;;14.53;7.90;;;;;;;-1.03;100.00;97192.10;1672261;84;21614;-68
2021/12/01 04:42:11;;;;;;;16.00;8.18;;;;;;;-1.01;100.00;97194.75;1660091;85;21153;-68
2021/12/01 04:44:39;;;;;;;13.60;8.10;;;;;;;-0.98;100.00;97200.09;1655957;85;21064;-67
2021/12/01 04:47:10;;;;;;;11.43;7.55;;;;;;;-0.98;100.00;97201.98;1655026;85;21104;-68
2021/12/01 04:49:37;;;;;;;13.68;8.13;;;;;;;-0.98;100.00;97204.67;1660909;84;21070;-68
2021/12/01 04:52:05;;;;;;;14.23;8.58;;;;;;;-0.98;100.00;97201.44;1668344;85;21009;-68
2021/12/01 04:54:35;;;;;;;11.80;8.10;;;;;;;-0.99;100.00;97202.53;1655712;85;21567;-68
2021/12/01 04:57:04;;;;;;;13.22;8.23;;;;;;;-0.99;100.00;97210.61;1659681;85;21914;-67
2021/12/01 04:59:32;;;;;;;13.60;7.78;;;;;;;-0.99;100.00;97210.61;1664914;84;21239;-68
2021/12/01 05:02:00;;;;;;;16.02;8.45;;;;;;;-0.98;100.00;97207.36;1664126;84;21207;-68
2021/12/01 05:04:26;;;;;;;13.15;8.05;;;;;;;-0.96;100.00;97206.52;1646933;85;21072;-69
2021/12/01 05:06:53;;;;;;;13.53;8.23;;;;;;;-0.96;100.00;97210.56;1660466;84;21237;-69
2021/12/01 05:09:21;;;;;;;15.80;7.95;;;;;;;-0.97;100.00;97209.77;1678947;84;21131;-69
2021/12/01 05:11:47;;;;;;;14.00;8.23;;;;;;;-0.97;100.00;97210.31;1674226;83;20950;-69
2021/12/01 05:14:14;;;;;;;13.20;8.08;;;;;;;-0.96;100.00;97209.22;1681383;84;22463;-69
2021/12/01 05:16:41;;;;;;;13.00;7.65;;;;;;;-0.97;100.00;97212.45;1691512;83;21116;-68
2021/12/01 05:19:10;;;;;;;13.48;8.20;;;;;;;-0.96;100.00;97210.02;1661701;83;21160;-68
2021/12/01 05:21:36;;;;;;;12.80;7.90;;;;;;;-0.95;100.00;97210.81;1657710;84;21550;-69
2021/12/01 05:24:04;;;;;;;13.18;7.22;;;;;;;-0.96;100.00;97223.48;1674838;84;21077;-68
2021/12/01 05:26:33;;;;;;;12.07;7.80;;;;;;;-0.94;100.00;97219.14;1661062;85;20922;-69
2021/12/01 05:28:59;;;;;;;12.78;7.33;;;;;;;-0.94;100.00;97219.94;1661219;85;20969;-69
2021/12/01 05:31:27;;;;;;;12.98;8.33;;;;;;;-0.91;100.00;97225.28;1659720;85;21125;-69
2021/12/01 05:33:54;;;;;;;12.58;7.65;;;;;;;-0.91;100.00;97229.32;1648161;84;20873;-68
2021/12/01 05:36:20;;;;;;;14.05;7.92;;;;;;;-0.90;100.00;97224.98;1642898;85;20964;-68
2021/12/01 05:38:47;;;;;;;11.38;7.33;;;;;;;-0.88;100.00;97236.81;1642438;86;20965;-68
2021/12/01 05:41:13;;;;;;;12.47;7.80;;;;;;;-0.86;100.00;97235.96;1631294;86;20969;-68
2021/12/01 05:43:40;;;;;;;10.85;7.00;;;;;;;-0.84;100.00;97240.50;1630910;86;21102;-68
2021/12/01 05:46:06;;;;;;;12.15;7.05;;;;;;;-0.83;100.00;97241.55;1633285;86;21100;-68
2021/12/01 05:48:32;;;;;;;12.37;8.13;;;;;;;-0.80;100.00;97246.34;1644943;85;20914;-68
2021/12/01 05:51:01;;;;;;;13.90;7.85;;;;;;;-0.76;100.00;97246.00;1649961;86;20982;-67
2021/12/01 05:53:28;;;;;;;12.82;7.83;;;;;;;-0.75;100.00;97251.64;1640352;86;21033;-69
2021/12/01 05:55:57;;;;;;;10.45;7.15;;;;;;;-0.72;100.00;97256.44;1639910;87;21158;-70
2021/12/01 05:58:24;;;;;;;11.53;7.30;;;;;;;-0.70;100.00;97258.28;1635480;86;21127;-69
2021/12/01 06:00:50;;;;;;;12.85;8.10;;;;;;;-0.67;100.00;97263.63;1636423;86;21018;-68
2021/12/01 06:03:17;;;;;;;14.90;7.78;;;;;;;-0.64;100.00;97263.58;1645105;86;21572;-67
2021/12/01 06:05:44;;;;;;;13.48;8.15;;;;;;;-0.64;100.00;97266.27;1638456;87;21060;-66
2021/12/01 06:08:10;;;;;;;14.80;8.85;;;;;;;-0.63;100.00;97271.36;1642299;86;21776;-68
2021/12/01 06:10:39;;;;;;;14.33;7.65;;;;;;;-0.62;100.00;97273.51;1648689;85;21066;-67
2021/12/01 06:13:05;;;;;;;11.48;7.62;;;;;;;-0.61;100.00;97275.11;1645650;85;20941;-66
2021/12/01 06:15:34;;;;;;;11.48;6.97;;;;;;;-0.59;100.00;97275.61;1639554;85;21038;-68
2021/12/01 06:18:00;;;;;;;9.88;6.33;;;;;;;-0.58;100.00;97278.55;1646634;85;21191;-68
2021/12/01 06:20:27;;;;;;;9.25;5.97;;;;;;;-0.57;100.00;97286.86;1642037;86;21166;-67
2021/12/01 06:22:54;;;;;;;9.50;6.37;;;;;;;-0.53;100.00;97289.20;1664325;84;21210;-66
2021/12/01 06:25:21;;;;;;;11.90;6.70;;;;;;;-0.49;100.00;97295.59;1663087;85;21056;-66
2021/12/01 06:27:48;;;;;;;10.28;5.42;;;;;;;-0.43;100.00;97298.45;1669778;84;21582;-66
2021/12/01 06:30:14;;;;;;;9.95;5.42;;;;;;;-0.38;100.00;97302.39;1671090;84;21049;-67
2021/12/01 06:32:42;;;;;;;8.98;5.50;;;;;;;-0.32;100.00;97303.89;1648306;85;21163;-68
2021/12/01 06:35:09;;;;;;;10.88;5.58;;;;;;;-0.24;100.00;97301.05;1650127;85;20997;-68
2021/12/01 06:37:36;;;;;;;8.55;5.37;;;;;;;-0.14;100.00;97312.98;1661345;84;21052;-68
2021/12/01 06:40:04;;;;;;;7.37;4.92;;;;;;;-0.04;100.00;97320.88;1665611;85;21587;-67
2021/12/01 06:42:31;;;;;;;10.00;5.22;;;;;;;0.06;100.00;97323.33;1666664;85;20962;-68
2021/12/01 06:44:58;;;;;;;7.75;4.85;;;;;;;0.16;100.00;97323.67;1659476;84;21731;-67
2021/12/01 06:47:24;;;;;;;9.15;5.97;;;;;;;0.27;100.00;97324.50;1657172;85;20874;-68
2021/12/01 06:49:51;;;;;;;8.23;4.95;;;;;;;0.42;100.00;97331.47;1662750;84;20940;-67
2021/12/01 06:52:18;;;;;;;9.13;4.72;;;;;;;0.44;100.00;97325.22;1656106;85;21553;-68
2021/12/01 06:54:44;;;;;;;11.60;6.60;;;;;;;0.39;100.00;97331.28;1656005;85;21001;-67
2021/12/01 06:57:10;;;;;;;9.08;5.40;;;;;;;0.33;100.00;97333.30;1659294;85;21153;-67
2021/12/01 06:59:37;;;;;;;7.37;4.40;;;;;;;0.29;100.00;97339.84;1657361;85;21134;-67
2021/12/01 07:02:05;;;;;;;9.45;6.08;;;;;;;0.31;100.00;97338.98;1654322;85;21162;-67
2021/12/01 07:04:31;;;;;;;9.53;5.62;;;;;;;0.43;100.00;97341.17;1658720;84;21588;-68
2021/12/01 07:06:58;;;;;;;16.48;6.30;;;;;;;0.55;100.00;97352.24;1658783;85;21112;-68
2021/12/01 07:09:26;;;;;;;13.62;6.47;;;;;;;0.57;100.00;97348.69;1654451;84;21151;-71
2021/12/01 07:11:53;;;;;;;15.85;7.28;;;;;;;0.54;100.00;97362.80;1675541;85;21089;-71
2021/12/01 07:14:19;;;;;;;17.62;9.78;;;;;;;0.48;100.00;97376.16;1656110;84;21099;-71
2021/12/01 07:16:46;;;;;;;15.32;8.35;;;;;;;0.44;100.00;97379.20;1671758;85;20918;-71
2021/12/01 07:19:13;;;;;;;8.18;5.58;;;;;;;0.40;100.00;97387.66;1657889;85;21081;-71
2021/12/01 07:21:40;;;;;;;9.88;5.97;;;;;;;0.40;100.00;97393.06;1664015;84;21500;-72
2021/12/01 07:24:07;;;;;;;15.10;8.25;;;;;;;0.40;100.00;97396.31;1656486;84;21008;-71
2021/12/01 07:26:33;;;;;;;14.68;9.03;;;;;;;0.37;100.00;97401.77;1664409;83;21018;-71
2021/12/01 07:29:01;;;;;;;12.20;7.15;;;;;;;0.38;100.00;97399.86;1694941;83;21542;-71
2021/12/01 07:31:29;;;;;;;8.88;5.72;;;;;;;0.40;100.00;97403.86;1689496;83;20995;-71
2021/12/01 07:33:55;;;;;;;12.65;6.62;;;;;;;0.43;100.00;97407.30;1690858;83;21943;-71
2021/12/01 07:36:22;;;;;;;10.48;6.05;;;;;;;0.46;100.00;97404.55;1686127;83;21532;-71
2021/12/01 07:38:50;;;;;;;10.75;6.50;;;;;;;0.49;100.00;97404.75;1684232;83;21540;-70
2021/12/01 07:41:17;;;;;;;13.00;7.50;;;;;;;0.52;100.00;97410.89;1669275;84;20994;-71
2021/12/01 07:43:43;;;;;;;8.83;6.33;;;;;;;0.54;100.00;97411.94;1671572;85;20915;-71
2021/12/01 07:46:10;;;;;;;9.15;5.85;;;;;;;0.55;100.00;97410.84;1668559;85;22191;-70
2021/12/01 07:48:37;;;;;;;10.00;5.70;;;;;;;0.55;100.00;97403.54;1666722;85;21532;-71
2021/12/01 07:51:04;;;;;;;12.25;6.78;;;;;;;0.57;100.00;97404.03;1666349;85;20942;-71
2021/12/01 07:53:32;;;;;;;15.13;6.47;;;;;;;0.59;100.00;97411.25;1670506;85;21077;-71
2021/12/01 07:56:02;;;;;;;11.40;6.62;;;;;;;0.63;100.00;97411.45;1666665;85;20903;-71
2021/12/01 07:58:29;;;;;;;13.00;6.72;;;;;;;0.64;100.00;97419.25;1662849;83;21162;-71
2021/12/01 08:00:55;;;;;;;12.78;7.22;;;;;;;0.64;100.00;97426.00;1688584;83;21082;-70
2021/12/01 08:03:22;;;;;;;11.57;6.92;;;;;;;0.63;100.00;97427.09;1677480;84;21123;-70
2021/12/01 08:05:49;;;;;;;8.98;5.78;;;;;;;0.64;100.00;97437.34;1680676;83;21071;-71
2021/12/01 08:08:17;;;;;;;14.75;8.15;;;;;;;0.60;100.00;97437.16;1688314;84;20994;-71
2021/12/01 08:10:47;;;;;;;11.88;7.15;;;;;;;0.57;100.00;97443.19;1677656;83;21128;-71
2021/12/01 08:13:13;;;;;;;10.63;7.20;;;;;;;0.54;100.00;97447.04;1681126;83;21073;-72
2021/12/01 08:15:40;;;;;;;10.45;6.60;;;;;;;0.50;100.00;97445.49;1663187;85;21033;-71
2021/12/01 08:18:07;;;;;;;10.20;6.30;;;;;;;0.48;100.00;97450.39;1658914;85;21517;-71
2021/12/01 08:20:36;;;;;;;13.48;7.40;;;;;;;0.46;100.00;97452.59;1658866;85;21013;-72
2021/12/01 08:23:02;;;;;;;12.80;7.60;;;;;;;0.46;100.00;97451.80;1656093;85;22150;-70
2021/12/01 08:25:30;;;;;;;12.95;6.33;;;;;;;0.47;100.00;97456.89;1661924;84;21116;-78
2021/12/01 08:28:00;;;;;;;9.73;6.42;;;;;;;0.45;100.00;97459.09;1651309;85;21824;-84
2021/12/01 08:30:26;;;;;;;10.95;6.97;;;;;;;0.46;100.00;97466.09;1663106;84;21214;-81
2021/12/01 08:32:54;;;;;;;9.98;6.65;;;;;;;0.45;100.00;97470.44;1671451;84;21445;-74
2021/12/01 08:35:20;;;;;;;7.03;5.70;;;;;;;0.44;100.00;97480.44;1663872;84;21817;-74
2021/12/01 08:37:47;;;;;;;8.03;6.00;;;;;;;0.44;100.00;97476.39;1658544;84;21103;-77
2021/12/01 08:40:15;;;;;;;13.55;9.13;;;;;;;0.46;100.00;97489.03;1654747;85;20982;-71
2021/12/01 08:42:42;;;;;;;10.38;6.35;;;;;;;0.48;100.00;97499.53;1656684;85;21112;-76
2021/12/01 08:45:09;;;;;;;9.08;6.30;;;;;;;0.46;100.00;97499.84;1655498;84;21095;-80
2021/12/01 08:47:36;;;;;;;7.90;5.95;;;;;;;0.47;100.00;97506.83;1658151;84;21906;-82
2021/12/01 08:50:05;;;;;;;7.95;6.03;;;;;;;0.44;100.00;97510.13;1642491;84;20953;-80
2021/12/01 08:52:32;;;;;;;9.88;5.83;;;;;;;0.42;100.00;97512.33;1646955;85;21318;-73
2021/12/01 08:54:58;;;;;;;8.98;6.08;;;;;;;0.43;100.00;97499.08;1648566;85;21108;-70
2021/12/01 08:57:25;;;;;;;9.73;7.25;;;;;;;0.41;100.00;97515.33;1660991;84;21064;-71
2021/12/01 08:59:52;;;;;;;11.25;7.17;;;;;;;0.37;100.00;97523.22;1668258;83;21130;-71
2021/12/01 09:02:18;;;;;;;11.40;7.17;;;;;;;0.36;100.00;97518.92;1677338;83;21163;-71
2021/12/01 09:04:49;;;;;;;13.65;7.42;;;;;;;0.38;100.00;97524.82;1661085;85;21678;-71
2021/12/01 09:07:15;;;;;;;12.47;6.87;;;;;;;0.39;100.00;97518.33;1657507;85;21005;-80
2021/12/01 09:09:41;;;;;;;11.22;6.87;;;;;;;0.39;100.00;97523.72;1662149;84;21068;-71
2021/12/01 09:12:08;;;;;;;11.00;7.03;;;;;;;0.43;100.00;97529.33;1651710;84;21150;-71
2021/12/01 09:14:35;;;;;;;12.00;7.40;;;;;;;0.45;100.00;97524.43;1657821;85;21021;-70
2021/12/01 09:17:02;;;;;;;11.22;7.03;;;;;;;0.48;100.00;97527.33;1657308;84;20965;-69
2021/12/01 09:19:29;;;;;;;11.03;7.35;;;;;;;0.51;100.00;97516.48;1633791;85;20993;-70
2021/12/01 09:21:55;;;;;;;12.15;8.55;;;;;;;0.54;100.00;97532.09;1654555;84;20989;-71
2021/12/01 09:24:22;;;;;;;15.60;8.53;;;;;;;0.55;100.00;97535.03;1672265;83;21120;-75
2021/12/01 09:26:52;;;;;;;14.07;7.67;;;;;;;0.55;100.00;97538.53;1657060;84;21717;-70
2021/12/01 09:29:19;;;;;;;13.30;8.18;;;;;;;0.57;100.00;97540.39;1655301;84;21562;-71
2021/12/01 09:31:46;;;;;;;11.78;8.55;;;;;;;0.60;100.00;97547.86;1654821;84;21152;-71
2021/12/01 09:34:13;;;;;;;13.18;8.63;;;;;;;0.59;100.00;97557.06;1654776;84;21081;-70
2021/12/01 09:36:40;;;;;;;14.23;9.00;;;;;;;0.59;100.00;97572.45;1654867;84;21489;-72
2021/12/01 09:39:07;;;;;;;17.10;8.63;;;;;;;0.57;100.00;97569.29;1668351;84;21555;-70
2021/12/01 09:41:33;;;;;;;15.13;10.00;;;;;;;0.57;100.00;97574.69;1635356;85;20907;-73
2021/12/01 09:44:01;;;;;;;14.23;9.05;;;;;;;0.56;100.00;97577.94;1656858;84;21079;-73
2021/12/01 09:46:30;;;;;;;13.58;8.23;;;;;;;0.57;100.00;97576.84;1637785;85;21098;-71
2021/12/01 09:48:57;;;;;;;18.17;8.88;;;;;;;0.61;100.00;97584.56;1632305;85;21542;-73
2021/12/01 09:51:23;;;;;;;16.12;9.65;;;;;;;0.63;100.00;97589.12;1633147;87;21124;-74
2021/12/01 09:53:52;;;;;;;15.43;10.05;;;;;;;0.63;100.00;97595.87;1593628;88;21095;-70
2021/12/01 09:56:19;;;;;;;19.65;9.53;;;;;;;0.66;100.00;97606.63;1594303;88;21067;-69
2021/12/01 09:58:45;;;;;;;15.88;9.68;;;;;;;0.65;100.00;97610.42;1632389;86;20998;-69
2021/12/01 10:01:18;;;;;;;15.75;9.45;;;;;;;0.62;100.00;97613.17;1620695;85;21175;-72
2021/12/01 10:03:45;;;;;;;14.45;8.85;;;;;;;0.63;100.00;97609.92;1664482;83;20946;-71
2021/12/01 10:06:15;;;;;;;16.87;9.68;;;;;;;0.63;100.00;97613.97;1651430;85;21006;-72
2021/12/01 10:08:50;;;;;;;17.12;10.23;;;;;;;0.62;100.00;97619.92;1678837;84;21033;-71
2021/12/01 10:11:32;;;;;;;20.02;10.08;;;;;;;0.59;100.00;97628.61;1678680;84;21532;-71
2021/12/01 10:14:10;;;;;;;17.25;10.75;;;;;;;0.60;100.00;97634.81;1678187;83;21796;-71
2021/12/01 10:16:40;;;;;;;18.37;10.00;;;;;;;0.59;100.00;97629.16;1661215;84;21125;-71
2021/12/01 10:19:10;;;;;;;14.15;9.05;;;;;;;0.60;100.00;97648.31;1664147;85;21004;-71
2021/12/01 10:21:41;;;;;;;15.83;9.98;;;;;;;0.60;100.00;97651.02;1655287;85;20987;-72
2021/12/01 10:24:12;;;;;;;16.50;9.88;;;;;;;0.59;100.00;97654.27;1665760;84;21001;-71
2021/12/01 10:26:45;;;;;;;14.23;9.45;;;;;;;0.58;100.00;97647.81;1688832;84;21188;-72
2021/12/01 10:29:16;;;;;;;12.47;9.03;;;;;;;0.59;100.00;97654.27;1689631;83;21650;-72
2021/12/01 10:31:51;;;;;;;14.78;9.50;;;;;;;0.60;100.00;97660.47;1667565;84;20942;-71
2021/12/01 10:34:36;;;;;;;17.62;9.78;;;;;;;0.58;100.00;97656.72;1676889;83;20965;-71
2021/12/01 10:37:11;;;;;;;16.82;8.75;;;;;;;0.58;100.00;97664.81;1666131;85;21566;-72
2021/12/01 10:39:40;;;;;;;16.07;9.73;;;;;;;0.59;100.00;97672.36;1628633;87;22130;-71
2021/12/01 10:42:11;;;;;;;17.37;10.45;;;;;;;0.56;100.00;97672.44;1664825;85;21005;-72
2021/12/01 10:44:38;;;;;;;18.57;10.47;;;;;;;0.57;100.00;97687.55;1669135;84;20985;-72
2021/12/01 10:47:10;;;;;;;14.75;9.65;;;;;;;0.58;100.00;97680.22;1621438;85;21560;-72
2021/12/01 10:49:43;;;;;;;15.43;9.73;;;;;;;0.58;100.00;97691.02;1661957;85;21744;-71
2021/12/01 10:52:34;;;;;;;17.45;10.53;;;;;;;0.56;100.00;97687.29;1672732;84;21726;-72
2021/12/01 10:55:12;;;;;;;19.15;10.82;;;;;;;0.56;100.00;97696.73;1666158;85;21643;-73
2021/12/01 10:57:42;;;;;;;14.53;8.88;;;;;;;0.59;100.00;97696.12;1662398;85;20918;-73
2021/12/01 11:00:19;;;;;;;15.75;10.25;;;;;;;0.63;100.00;97698.48;1668750;85;20997;-73
2021/12/01 11:02:47;;;;;;;17.75;9.98;;;;;;;0.69;100.00;97698.40;1661631;85;21021;-73
2021/12/01 11:05:33;;;;;;;15.75;9.05;;;;;;;0.75;100.00;97691.81;1664393;85;21149;-73
2021/12/01 11:08:25;;;;;;;13.90;8.60;;;;;;;0.78;100.00;97700.13;1668481;85;21433;-71
2021/12/01 11:11:11;;;;;;;15.20;8.90;;;;;;;0.77;100.00;97695.81;1667404;85;21241;-73
2021/12/01 11:13:42;;;;;;;17.70;10.25;;;;;;;0.76;100.00;97699.62;1661655;84;21528;-76
2021/12/01 11:16:13;;;;;;;19.12;10.82;;;;;;;0.78;100.00;97706.08;1636053;87;21030;-86
2021/12/01 11:18:43;;;;;;;14.83;9.08;;;;;;;0.74;100.00;97711.27;1639324;86;21171;-82
2021/12/01 11:21:17;;;;;;;15.25;9.55;;;;;;;0.74;100.00;97722.07;1662404;85;21124;-78
2021/12/01 11:23:53;;;;;;;21.75;10.82;;;;;;;0.74;100.00;97721.27;1661103;84;21038;-79
2021/12/01 11:26:26;;;;;;;21.80;10.40;;;;;;;0.71;100.00;97729.96;1680861;83;20993;-79
2021/12/01 11:28:57;;;;;;;17.10;10.05;;;;;;;0.70;100.00;97737.81;1669427;85;21123;-74
2021/12/01 11:31:32;;;;;;;15.83;9.48;;;;;;;0.71;100.00;97727.26;1656655;84;21291;-70